Time;durP1;ratioP1;P1;durP2;ratioP2;P2;SDS_P1;SDS_P2;PMS_P1;PMS_P2;Temp;Humidity;BMP_temperature;BMP_pressure;BME280_temperature;BME280_humidity;BME280_pressure;Samples;Min_cycle;Max_cycle;Signal;HPM_P1;HPM_P2
2022/05/07 00:02:07;;;;;;;32.55;24.05;;;14.00;99.90;;;;;;5055078;28;20048;-72
2022/05/07 00:04:37;;;;;;;31.75;23.48;;;14.00;99.90;;;;;;4963569;28;205005;-73
2022/05/07 00:07:07;;;;;;;37.23;26.00;;;14.00;99.90;;;;;;5019091;28;20053;-73
2022/05/07 00:09:35;;;;;;;33.47;24.10;;;14.00;99.90;;;;;;4993777;28;203888;-73
2022/05/07 00:12:02;;;;;;;37.03;24.40;;;13.90;99.90;;;;;;5035660;28;20370;-73
2022/05/07 00:14:28;;;;;;;33.55;24.15;;;14.00;99.90;;;;;;5009952;28;57093;-73
2022/05/07 00:19:39;;;;;;;27.70;21.80;;;14.00;99.90;;;;;;4990656;28;72601;-72
2022/05/07 00:22:05;;;;;;;30.05;23.42;;;14.00;99.90;;;;;;5018714;28;20053;-72
2022/05/07 00:24:31;;;;;;;32.85;23.27;;;13.90;99.90;;;;;;4994942;28;240050;-72
2022/05/07 00:26:57;;;;;;;29.58;22.17;;;13.90;99.90;;;;;;5047145;28;20045;-72
2022/05/07 00:29:23;;;;;;;30.10;22.50;;;13.90;99.90;;;;;;4992072;28;78295;-72
2022/05/07 00:31:50;;;;;;;30.05;23.58;;;14.00;99.90;;;;;;5043854;28;20383;-72
2022/05/07 00:34:16;;;;;;;32.85;23.83;;;14.00;99.90;;;;;;4977675;28;35918;-72
2022/05/07 00:36:42;;;;;;;32.25;24.23;;;14.00;99.90;;;;;;5050517;28;20117;-72
2022/05/07 00:39:08;;;;;;;31.48;23.40;;;14.00;99.90;;;;;;4981572;28;254555;-72
2022/05/07 00:41:34;;;;;;;32.42;24.20;;;14.00;99.90;;;;;;5025308;28;20041;-72
2022/05/07 00:44:00;;;;;;;32.42;21.70;;;14.00;99.90;;;;;;4964263;28;219427;-72
2022/05/07 00:46:27;;;;;;;28.30;21.30;;;14.00;99.90;;;;;;5027759;28;20089;-72
2022/05/07 00:48:54;;;;;;;28.52;21.20;;;14.00;99.90;;;;;;5000153;28;20040;-72
2022/05/07 00:51:35;;;;;;;28.65;21.98;;;14.00;99.90;;;;;;4973523;28;20045;-72
2022/05/07 00:54:05;;;;;;;;;;;14.00;99.90;;;;;;4989046;28;81546;-72
2022/05/07 00:56:32;;;;;;;31.80;24.42;;;14.00;99.90;;;;;;5044014;28;19932;-72
2022/05/07 00:59:00;;;;;;;29.33;22.67;;;13.90;99.90;;;;;;4984925;28;164772;-72
2022/05/07 01:01:27;;;;;;;29.23;22.65;;;13.90;99.90;;;;;;5037108;28;20053;-72
2022/05/07 01:03:53;;;;;;;28.52;23.45;;;13.90;99.90;;;;;;5000696;28;20174;-72
2022/05/07 01:06:20;;;;;;;28.95;21.90;;;13.80;99.90;;;;;;4993517;23;122521;-68
2022/05/07 01:08:48;;;;;;;30.48;22.70;;;13.80;99.90;;;;;;4975820;28;20507;-68
2022/05/07 01:11:16;;;;;;;31.70;22.60;;;13.80;99.90;;;;;;4981468;28;244288;-68
2022/05/07 01:13:44;;;;;;;30.60;23.40;;;13.80;99.90;;;;;;4962935;28;20046;-68
2022/05/07 01:16:11;;;;;;;31.88;23.63;;;13.90;99.90;;;;;;4973556;28;69716;-68
2022/05/07 01:18:38;;;;;;;31.55;25.33;;;13.90;99.90;;;;;;4944792;28;20058;-68
2022/05/07 01:21:09;;;;;;;32.45;23.35;;;13.80;99.90;;;;;;4978976;28;205023;-68
2022/05/07 01:23:36;;;;;;;32.35;23.67;;;13.80;99.90;;;;;;4959059;28;20042;-68
2022/05/07 01:26:02;;;;;;;29.08;23.15;;;13.80;99.90;;;;;;4993649;28;110802;-68
2022/05/07 01:28:28;;;;;;;30.33;22.75;;;13.80;99.90;;;;;;4943154;28;20050;-68
2022/05/07 01:30:55;;;;;;;25.20;19.85;;;13.80;99.90;;;;;;4944416;28;204617;-68
2022/05/07 01:33:22;;;;;;;30.52;23.00;;;13.80;99.90;;;;;;4942971;28;20051;-67
2022/05/07 01:35:48;;;;;;;31.88;24.58;;;13.80;99.90;;;;;;4963776;28;236904;-68
2022/05/07 01:38:14;;;;;;;28.85;20.92;;;13.90;99.90;;;;;;4967158;28;20047;-68
2022/05/07 01:40:40;;;;;;;32.88;23.52;;;13.90;99.90;;;;;;4951846;28;220451;-68
2022/05/07 01:43:06;;;;;;;30.25;23.05;;;13.90;99.90;;;;;;4982999;28;20432;-68
2022/05/07 01:45:32;;;;;;;32.78;24.50;;;13.80;99.90;;;;;;4938088;28;220495;-68
2022/05/07 01:48:10;;;;;;;32.05;24.05;;;13.90;99.90;;;;;;4967629;28;20059;-68
2022/05/07 01:50:38;;;;;;;28.65;23.45;;;13.90;99.90;;;;;;4955590;28;40012;-68
2022/05/07 01:53:11;;;;;;;30.90;23.83;;;13.90;99.90;;;;;;4971423;28;20055;-68
2022/05/07 01:55:38;;;;;;;34.55;24.38;;;13.90;99.90;;;;;;4944275;28;146583;-68
2022/05/07 01:58:04;;;;;;;32.80;24.67;;;13.80;99.90;;;;;;4982443;28;20706;-68
2022/05/07 02:00:33;;;;;;;29.50;23.98;;;13.80;99.90;;;;;;4951071;28;98873;-68
2022/05/07 02:02:59;;;;;;;33.05;25.27;;;13.80;99.90;;;;;;4982383;28;20500;-68
2022/05/07 02:05:27;;;;;;;32.80;25.00;;;13.80;99.90;;;;;;4919881;28;155876;-68
2022/05/07 02:07:54;;;;;;;32.17;24.67;;;13.80;99.90;;;;;;4992842;28;20051;-68
2022/05/07 02:10:20;;;;;;;31.90;24.70;;;13.70;99.90;;;;;;4944200;28;20058;-68
2022/05/07 02:12:48;;;;;;;30.25;24.83;;;13.70;99.90;;;;;;4967169;28;20054;-68
2022/05/07 02:15:14;;;;;;;30.85;24.52;;;13.70;99.90;;;;;;4932765;28;93929;-68
2022/05/07 02:17:40;;;;;;;31.15;24.15;;;13.70;99.90;;;;;;4979160;28;20038;-68
2022/05/07 02:20:07;;;;;;;32.20;24.02;;;13.70;99.90;;;;;;4963081;28;120435;-68
2022/05/07 02:22:33;;;;;;;29.50;23.38;;;13.70;99.90;;;;;;4971176;28;20058;-68
2022/05/07 02:24:59;;;;;;;32.28;23.42;;;13.70;99.90;;;;;;4953499;28;109889;-68
2022/05/07 02:27:26;;;;;;;30.65;22.95;;;13.70;99.90;;;;;;4980347;28;20051;-68
2022/05/07 02:29:52;;;;;;;29.08;23.17;;;13.70;99.90;;;;;;4957593;28;223987;-68
2022/05/07 02:32:19;;;;;;;28.50;23.20;;;13.70;99.90;;;;;;4982683;28;20046;-68
2022/05/07 02:34:45;;;;;;;28.85;22.42;;;13.70;99.90;;;;;;4926054;28;24295;-68
2022/05/07 02:37:12;;;;;;;28.95;22.77;;;13.60;99.90;;;;;;4961008;28;20058;-68
2022/05/07 02:39:38;;;;;;;29.20;23.02;;;13.60;99.90;;;;;;4933721;28;138343;-68
2022/05/07 02:44:50;;;;;;;29.65;22.50;;;13.60;99.90;;;;;;4966795;28;101352;-68
2022/05/07 02:47:16;;;;;;;31.90;24.13;;;13.60;99.90;;;;;;4986006;28;20038;-68
2022/05/07 02:49:42;;;;;;;28.33;22.48;;;13.50;99.90;;;;;;4933636;28;93603;-68
2022/05/07 02:52:08;;;;;;;32.60;23.23;;;13.50;99.90;;;;;;4989386;28;20066;-68
2022/05/07 02:54:34;;;;;;;29.02;22.75;;;13.50;99.90;;;;;;4950040;28;168177;-68
2022/05/07 02:57:01;;;;;;;28.73;23.42;;;13.40;99.90;;;;;;4991854;28;20059;-68
2022/05/07 02:59:27;;;;;;;29.10;22.60;;;13.40;99.90;;;;;;4927132;28;233709;-68
2022/05/07 03:01:53;;;;;;;30.38;23.08;;;13.40;99.90;;;;;;4973253;28;20050;-68
2022/05/07 03:04:20;;;;;;;29.48;23.23;;;13.40;99.90;;;;;;4925214;28;146687;-68
2022/05/07 03:06:46;;;;;;;28.98;23.13;;;13.40;99.90;;;;;;4987207;28;20051;-68
2022/05/07 03:09:12;;;;;;;31.88;23.73;;;13.40;99.90;;;;;;4929846;28;97402;-68
2022/05/07 03:11:38;;;;;;;26.23;22.80;;;13.30;99.90;;;;;;4958412;28;20080;-68
2022/05/07 03:14:06;;;;;;;26.67;22.60;;;13.30;99.90;;;;;;4940732;28;93848;-67
2022/05/07 03:16:35;;;;;;;26.85;22.42;;;13.30;99.90;;;;;;4998730;28;20055;-68
2022/05/07 03:19:02;;;;;;;27.75;23.20;;;13.30;99.90;;;;;;4927543;28;219860;-68
2022/05/07 03:21:29;;;;;;;28.77;22.92;;;13.30;99.90;;;;;;4959692;28;20085;-68
2022/05/07 03:23:55;;;;;;;29.84;23.04;;;13.20;99.90;;;;;;4948779;28;239710;-67
2022/05/07 03:26:24;;;;;;;29.52;22.52;;;13.20;99.90;;;;;;4981417;28;20704;-68
2022/05/07 03:28:50;;;;;;;29.98;22.63;;;13.20;99.90;;;;;;4953258;28;20033;-68
2022/05/07 03:31:19;;;;;;;26.25;21.52;;;13.20;99.90;;;;;;4976372;28;232123;-68
2022/05/07 03:33:46;;;;;;;24.98;21.55;;;13.20;99.90;;;;;;4973233;28;20043;-68
2022/05/07 03:36:15;;;;;;;28.23;22.55;;;13.20;99.90;;;;;;4951637;28;177421;-68
2022/05/07 03:38:42;;;;;;;27.85;22.38;;;13.20;99.90;;;;;;4942983;28;20066;-68
2022/05/07 03:41:08;;;;;;;28.35;21.55;;;13.20;99.90;;;;;;4958972;28;205629;-69
2022/05/07 03:43:36;;;;;;;29.08;21.55;;;13.20;99.90;;;;;;4948332;28;21336;-68
2022/05/07 03:46:06;;;;;;;27.65;22.00;;;13.20;99.90;;;;;;4982473;28;59660;-69
2022/05/07 03:48:32;;;;;;;29.67;21.55;;;13.20;99.90;;;;;;4942977;28;20070;-68
2022/05/07 03:50:59;;;;;;;29.02;22.05;;;13.20;99.90;;;;;;4955897;28;155333;-68
2022/05/07 03:53:32;;;;;;;27.42;21.45;;;13.20;99.90;;;;;;4970383;28;20050;-68
2022/05/07 03:56:06;;;;;;;29.33;22.15;;;13.20;99.90;;;;;;4987701;28;42680;-68
2022/05/07 03:58:35;;;;;;;28.00;21.73;;;13.20;99.90;;;;;;4974261;28;20062;-68
2022/05/07 04:01:02;;;;;;;26.63;22.02;;;13.20;99.90;;;;;;5005016;28;20057;-68
2022/05/07 04:03:30;;;;;;;27.83;22.02;;;13.20;99.90;;;;;;4942713;28;20090;-68
2022/05/07 04:05:57;;;;;;;26.23;21.35;;;13.20;99.90;;;;;;4979986;28;200197;-69
2022/05/07 04:08:23;;;;;;;26.85;21.33;;;13.20;99.90;;;;;;4942255;28;20058;-69
2022/05/07 04:10:50;;;;;;;26.08;21.70;;;13.20;99.90;;;;;;4962880;28;253575;-69
2022/05/07 04:13:16;;;;;;;25.70;20.65;;;13.20;99.90;;;;;;4966426;28;20038;-69
2022/05/07 04:15:43;;;;;;;27.45;21.75;;;13.20;99.90;;;;;;4949168;28;209101;-69
2022/05/07 04:18:10;;;;;;;24.40;20.70;;;13.20;99.90;;;;;;4968020;28;20142;-69
2022/05/07 04:20:37;;;;;;;23.85;20.92;;;13.20;99.90;;;;;;4940769;28;166121;-69
2022/05/07 04:23:04;;;;;;;24.38;19.92;;;13.20;99.90;;;;;;4970708;28;20424;-69
2022/05/07 04:25:30;;;;;;;24.88;20.63;;;13.30;99.90;;;;;;4938114;28;257947;-69
2022/05/07 04:27:56;;;;;;;25.27;19.73;;;13.30;99.90;;;;;;4971779;28;21696;-69
2022/05/07 04:30:23;;;;;;;23.40;19.63;;;13.30;99.90;;;;;;4953515;28;148968;-69
2022/05/07 04:32:50;;;;;;;23.55;18.85;;;13.30;99.90;;;;;;4970347;28;20109;-69
2022/05/07 04:35:16;;;;;;;25.80;21.10;;;13.40;99.90;;;;;;4949920;28;178681;-69
2022/05/07 04:37:43;;;;;;;27.67;21.05;;;13.40;99.90;;;;;;4968283;28;20358;-69
2022/05/07 04:40:10;;;;;;;25.05;20.40;;;13.40;99.90;;;;;;4924121;28;252952;-69
2022/05/07 04:42:37;;;;;;;23.50;20.33;;;13.40;99.90;;;;;;4975036;28;20051;-69
2022/05/07 04:45:06;;;;;;;26.15;19.80;;;13.40;99.90;;;;;;4947295;28;220588;-69
2022/05/07 04:47:33;;;;;;;22.70;17.35;;;13.40;99.90;;;;;;4976634;28;20053;-69
2022/05/07 04:49:59;;;;;;;20.35;17.63;;;13.40;99.90;;;;;;4955274;28;113449;-69
2022/05/07 04:52:26;;;;;;;26.83;19.35;;;13.40;99.90;;;;;;4975017;28;20539;-69
2022/05/07 04:54:53;;;;;;;25.25;20.20;;;13.50;99.90;;;;;;4947819;28;118061;-68
2022/05/07 04:57:20;;;;;;;23.98;19.83;;;13.50;99.90;;;;;;4979609;28;20038;-69
2022/05/07 04:59:46;;;;;;;23.65;19.35;;;13.50;99.90;;;;;;4952419;28;126039;-69
2022/05/07 05:02:12;;;;;;;25.65;20.45;;;13.50;99.90;;;;;;4961393;28;20051;-69
2022/05/07 05:04:39;;;;;;;26.70;21.65;;;13.50;99.90;;;;;;4948640;28;240568;-69
2022/05/07 05:07:05;;;;;;;24.00;20.23;;;13.60;99.90;;;;;;4973050;28;20470;-69
2022/05/07 05:09:31;;;;;;;26.38;20.23;;;13.60;99.90;;;;;;4933444;28;34901;-69
2022/05/07 05:11:57;;;;;;;24.52;20.60;;;13.60;99.90;;;;;;4975369;28;20500;-69
2022/05/07 05:17:15;;;;;;;23.30;19.27;;;13.60;99.90;;;;;;4973335;28;20062;-66
2022/05/07 05:19:41;;;;;;;26.58;20.67;;;13.60;99.90;;;;;;4936249;28;33930;-69
2022/05/07 05:22:07;;;;;;;26.20;20.65;;;13.60;99.90;;;;;;4969032;28;20151;-69
2022/05/07 05:24:33;;;;;;;29.85;21.15;;;13.70;99.90;;;;;;4929955;28;218277;-69
2022/05/07 05:27:00;;;;;;;27.17;21.33;;;13.70;99.90;;;;;;4969248;28;20058;-69
2022/05/07 05:29:26;;;;;;;26.52;20.83;;;13.70;99.90;;;;;;4931180;28;236396;-69
2022/05/07 05:31:52;;;;;;;26.55;21.00;;;13.70;99.90;;;;;;4966565;28;20535;-69
2022/05/07 05:34:18;;;;;;;30.50;22.15;;;13.80;99.90;;;;;;4930052;28;199452;-68
2022/05/07 05:36:44;;;;;;;26.65;21.00;;;13.80;99.90;;;;;;4963280;28;20054;-68
2022/05/07 05:39:10;;;;;;;27.38;22.13;;;13.80;99.90;;;;;;4937301;28;34333;-68
2022/05/07 05:41:39;;;;;;;28.25;21.98;;;13.90;99.90;;;;;;4954105;28;20379;-68
2022/05/07 05:44:05;;;;;;;27.13;20.73;;;13.90;99.90;;;;;;4931768;28;134822;-68
2022/05/07 05:46:31;;;;;;;25.88;21.23;;;14.00;99.90;;;;;;4963774;28;20073;-68
2022/05/07 05:48:57;;;;;;;27.00;21.27;;;14.00;99.90;;;;;;4927042;28;31240;-68
2022/05/07 05:51:23;;;;;;;22.92;20.10;;;14.00;99.90;;;;;;4973020;28;20050;-68
2022/05/07 05:53:51;;;;;;;25.65;20.33;;;14.20;99.90;;;;;;4949682;28;20052;-69
2022/05/07 05:56:17;;;;;;;25.25;21.27;;;14.30;99.90;;;;;;4969737;28;221000;-69
2022/05/07 05:58:43;;;;;;;25.13;20.65;;;14.30;99.90;;;;;;4948734;28;20453;-68
2022/05/07 06:01:09;;;;;;;26.20;21.50;;;14.40;99.90;;;;;;4994583;28;20073;-68
2022/05/07 06:03:35;;;;;;;25.90;21.42;;;14.40;99.90;;;;;;4940768;28;20059;-68
2022/05/07 06:06:01;;;;;;;27.08;21.23;;;14.40;99.90;;;;;;4982240;28;112449;-68
2022/05/07 06:08:28;;;;;;;24.58;20.33;;;14.50;99.90;;;;;;4940994;28;20491;-68
2022/05/07 06:10:55;;;;;;;26.15;21.38;;;14.50;99.90;;;;;;4954845;28;88747;-68
2022/05/07 06:13:21;;;;;;;28.92;20.55;;;14.50;99.90;;;;;;4942285;28;20127;-68
2022/05/07 06:15:51;;;;;;;27.20;21.50;;;14.50;99.90;;;;;;4953751;28;114665;-69
2022/05/07 06:18:21;;;;;;;28.13;20.92;;;14.40;99.90;;;;;;4957689;28;20513;-68
2022/05/07 06:20:49;;;;;;;26.88;21.30;;;14.40;99.90;;;;;;4935007;28;208349;-68
2022/05/07 06:23:16;;;;;;;25.63;20.75;;;14.50;99.90;;;;;;4960525;28;20055;-68
2022/05/07 06:28:26;;;;;;;24.65;21.05;;;14.60;99.90;;;;;;4930368;28;20062;-69
2022/05/07 06:30:53;;;;;;;26.45;20.77;;;14.60;99.90;;;;;;4985532;28;222746;-68
2022/05/07 06:33:20;;;;;;;26.42;20.95;;;14.60;99.90;;;;;;4945960;28;20062;-68
2022/05/07 06:35:47;;;;;;;24.15;19.92;;;14.70;99.90;;;;;;4957362;28;186423;-68
2022/05/07 06:38:14;;;;;;;24.90;20.67;;;14.70;99.90;;;;;;4959602;28;20055;-68
2022/05/07 06:40:40;;;;;;;23.17;20.23;;;14.70;99.90;;;;;;4956256;28;125422;-68
2022/05/07 06:43:06;;;;;;;26.35;21.33;;;14.80;99.90;;;;;;4963672;28;20541;-68
2022/05/07 06:45:33;;;;;;;24.65;20.65;;;14.90;99.90;;;;;;4942752;28;240385;-68
2022/05/07 06:47:59;;;;;;;25.10;20.60;;;14.90;99.90;;;;;;4963839;28;20058;-70
2022/05/07 06:50:26;;;;;;;24.85;20.73;;;15.00;99.90;;;;;;4934774;28;211975;-68
2022/05/07 06:52:52;;;;;;;25.77;21.00;;;15.00;99.90;;;;;;4991360;28;20508;-68
2022/05/07 06:55:19;;;;;;;23.83;20.13;;;15.10;99.90;;;;;;4955188;28;63589;-68
2022/05/07 06:57:46;;;;;;;24.48;20.88;;;15.10;99.90;;;;;;4966076;28;20055;-68
2022/05/07 07:00:14;;;;;;;25.42;19.88;;;15.20;99.90;;;;;;4944907;28;178227;-68
2022/05/07 07:02:41;;;;;;;23.05;18.65;;;15.40;99.90;;;;;;4953556;28;20051;-68
2022/05/07 07:05:07;;;;;;;25.63;19.35;;;15.40;99.90;;;;;;4969479;22;124711;-70
2022/05/07 07:07:33;;;;;;;24.95;19.35;;;15.50;99.90;;;;;;4986943;28;20134;-71
2022/05/07 07:10:00;;;;;;;25.98;20.25;;;15.70;99.90;;;;;;4969170;28;126387;-71
2022/05/07 07:12:26;;;;;;;26.60;18.83;;;15.90;99.90;;;;;;4966337;28;20055;-71
2022/05/07 07:14:52;;;;;;;24.95;19.33;;;16.10;99.90;;;;;;4954207;28;83004;-71
2022/05/07 07:17:18;;;;;;;26.13;19.60;;;16.30;99.90;;;;;;4965623;28;20146;-72
2022/05/07 07:19:45;;;;;;;24.52;18.55;;;16.50;99.90;;;;;;4945266;28;117438;-71
2022/05/07 07:22:12;;;;;;;22.05;17.55;;;16.70;99.90;;;;;;4956265;28;20063;-72
2022/05/07 07:24:39;;;;;;;23.80;18.42;;;16.90;99.90;;;;;;4941982;28;150785;-72
2022/05/07 07:27:06;;;;;;;23.67;18.30;;;17.10;99.90;;;;;;4957963;28;20070;-71
2022/05/07 07:29:33;;;;;;;25.48;17.77;;;17.30;99.90;;;;;;4946830;28;120794;-72
2022/05/07 07:31:59;;;;;;;25.00;18.20;;;17.20;99.90;;;;;;4989762;28;20042;-72
2022/05/07 07:34:25;;;;;;;23.92;18.35;;;17.10;99.90;;;;;;4943560;28;106484;-72
2022/05/07 07:36:51;;;;;;;23.50;18.23;;;17.30;99.90;;;;;;4970664;28;20103;-72
2022/05/07 07:39:18;;;;;;;22.73;18.27;;;17.40;99.90;;;;;;4956572;28;20148;-71
2022/05/07 07:41:44;;;;;;;23.45;18.05;;;17.40;99.90;;;;;;4975061;28;20051;-71
2022/05/07 07:44:11;;;;;;;22.65;19.40;;;17.40;99.90;;;;;;4949770;28;164797;-72
2022/05/07 07:49:22;;;;;;;23.88;19.80;;;17.20;99.90;;;;;;4948167;28;84569;-71
2022/05/07 07:51:48;;;;;;;30.77;20.35;;;17.20;99.90;;;;;;4986813;28;21713;-71
2022/05/07 07:54:14;;;;;;;24.48;20.10;;;17.10;99.90;;;;;;4945362;28;213950;-70
2022/05/07 07:56:44;;;;;;;26.65;20.75;;;17.00;99.90;;;;;;4976556;28;20074;-70
2022/05/07 07:59:10;;;;;;;27.73;21.83;;;16.80;99.90;;;;;;4950710;28;43647;-70
2022/05/07 08:01:37;;;;;;;25.02;21.20;;;16.80;99.90;;;;;;4988145;28;20323;-71
2022/05/07 08:04:04;;;;;;;27.25;20.58;;;16.80;99.90;;;;;;4919471;28;167918;-72
2022/05/07 08:06:31;;;;;;;27.05;21.70;;;17.00;99.90;;;;;;5005046;28;20493;-72
2022/05/07 08:11:46;;;;;;;27.33;21.27;;;17.20;99.90;;;;;;4984296;28;20043;-72
2022/05/07 08:14:13;;;;;;;26.52;20.98;;;17.20;99.90;;;;;;4933506;28;239285;-72
2022/05/07 08:16:41;;;;;;;25.17;19.92;;;17.20;99.90;;;;;;4988774;28;20776;-72
2022/05/07 08:19:08;;;;;;;24.58;20.40;;;17.40;99.90;;;;;;4936995;28;65248;-73
2022/05/07 08:21:34;;;;;;;28.15;21.33;;;17.60;99.90;;;;;;4992025;28;20548;-72
2022/05/07 08:24:00;;;;;;;25.90;20.90;;;17.70;99.90;;;;;;4925725;28;252324;-71
2022/05/07 08:26:26;;;;;;;24.55;19.85;;;17.70;99.90;;;;;;4993992;28;20055;-70
2022/05/07 08:28:53;;;;;;;27.02;20.83;;;17.80;99.90;;;;;;4966047;28;20192;-70
2022/05/07 08:31:23;;;;;;;26.02;20.30;;;18.00;99.90;;;;;;4990563;28;59620;-70
2022/05/07 08:33:50;;;;;;;25.73;20.63;;;18.20;99.90;;;;;;4952648;28;20056;-71
2022/05/07 08:36:17;;;;;;;25.88;21.02;;;18.20;99.90;;;;;;4982390;28;20604;-71
2022/05/07 08:38:43;;;;;;;25.15;20.23;;;18.30;99.90;;;;;;4941477;28;20084;-71
2022/05/07 08:41:11;;;;;;;24.48;20.80;;;18.20;99.90;;;;;;4984868;28;274833;-71
2022/05/07 08:43:40;;;;;;;26.02;19.80;;;18.20;99.90;;;;;;4938987;28;20670;-71
2022/05/07 08:46:18;;;;;;;24.58;20.38;;;18.30;99.90;;;;;;4971732;28;73045;-71
2022/05/07 08:48:46;;;;;;;28.83;20.70;;;18.40;99.90;;;;;;4942154;28;20454;-71
2022/05/07 08:51:17;;;;;;;24.27;20.77;;;18.60;99.90;;;;;;4962619;28;239106;-71
2022/05/07 08:53:44;;;;;;;26.73;20.27;;;18.90;99.90;;;;;;4939464;28;20050;-71
2022/05/07 08:56:11;;;;;;;26.38;20.48;;;19.00;99.90;;;;;;4967781;28;120523;-71
2022/05/07 08:58:38;;;;;;;35.95;20.17;;;19.10;99.90;;;;;;4936049;28;20051;-71
2022/05/07 09:01:05;;;;;;;25.85;20.13;;;19.10;99.90;;;;;;4977441;28;38270;-71
2022/05/07 09:03:40;;;;;;;23.05;19.80;;;19.20;99.90;;;;;;4929144;28;20447;-70
2022/05/07 09:06:24;;;;;;;27.42;19.95;;;19.30;99.90;;;;;;4950020;28;221027;-71
2022/05/07 09:08:52;;;;;;;24.77;19.88;;;19.30;99.90;;;;;;4938896;28;20046;-71
2022/05/07 09:11:19;;;;;;;25.58;20.90;;;19.40;99.90;;;;;;4951532;28;56860;-73
2022/05/07 09:13:46;;;;;;;24.30;19.65;;;19.40;99.90;;;;;;4940592;28;20045;-71
2022/05/07 09:16:13;;;;;;;26.60;20.50;;;19.40;99.90;;;;;;4979258;28;226460;-70
2022/05/07 09:18:47;;;;;;;24.08;20.17;;;19.50;99.90;;;;;;4937245;28;20495;-71
2022/05/07 09:21:16;;;;;;;22.15;19.08;;;19.60;99.90;;;;;;4974596;28;68234;-70
2022/05/07 09:24:07;;;;;;;25.67;20.40;;;19.70;99.90;;;;;;4935436;28;20046;-71
2022/05/07 09:26:44;;;;;;;25.92;19.98;;;19.70;99.90;;;;;;4936622;28;20073;-70
2022/05/07 09:29:12;;;;;;;23.88;19.35;;;19.80;99.90;;;;;;4939670;28;251006;-70
2022/05/07 09:31:42;;;;;;;23.77;18.63;;;19.90;99.90;;;;;;4981870;28;20058;-70
2022/05/07 09:37:20;;;;;;;22.98;18.95;;;20.40;99.90;;;;;;4982484;28;20062;-70
2022/05/07 09:39:49;;;;;;;24.40;19.00;;;20.50;99.40;;;;;;4948255;28;186898;-69
2022/05/07 09:42:16;;;;;;;24.05;18.60;;;20.60;99.50;;;;;;4962341;28;20389;-71
2022/05/07 09:44:44;;;;;;;24.10;18.92;;;20.80;99.00;;;;;;4938872;28;93256;-70
2022/05/07 09:47:12;;;;;;;21.48;18.27;;;20.80;97.80;;;;;;4971683;28;20310;-70
2022/05/07 09:52:28;;;;;;;22.40;17.30;;;21.10;98.80;;;;;;4975248;28;20070;-71
2022/05/07 09:57:41;;;;;;;22.17;17.52;;;21.50;97.20;;;;;;4964304;28;20055;-72
2022/05/07 10:00:13;;;;;;;20.40;16.73;;;21.40;96.70;;;;;;4969944;28;129906;-71
2022/05/07 10:03:01;;;;;;;29.77;18.17;;;21.30;96.90;;;;;;4942937;28;20066;-71
2022/05/07 10:05:42;;;;;;;21.77;18.08;;;21.10;96.30;;;;;;4946572;28;149265;-71
2022/05/07 10:08:20;;;;;;;;;;;20.90;97.20;;;;;;4989630;28;20059;-71
2022/05/07 10:10:48;;;;;;;25.73;17.98;;;20.90;96.50;;;;;;4941687;28;219783;-70
2022/05/07 10:13:18;;;;;;;24.80;18.95;;;20.90;97.80;;;;;;4960494;28;20054;-70
2022/05/07 10:15:45;;;;;;;20.00;16.60;;;20.70;97.30;;;;;;4940747;28;120445;-71
2022/05/07 10:18:16;;;;;;;23.35;17.23;;;20.90;98.00;;;;;;4959985;28;20086;-70
2022/05/07 10:20:47;;;;;;;23.02;17.63;;;21.20;97.50;;;;;;4944733;28;137721;-70
2022/05/07 10:23:14;;;;;;;22.98;17.55;;;21.30;97.10;;;;;;4990461;28;20067;-70
2022/05/07 10:25:45;;;;;;;21.83;16.33;;;21.50;96.60;;;;;;4965017;28;104611;-70
2022/05/07 10:28:13;;;;;;;21.60;16.88;;;21.50;96.50;;;;;;4960674;28;20054;-70
2022/05/07 10:30:50;;;;;;;22.42;16.60;;;21.50;95.60;;;;;;4960722;28;251224;-72
2022/05/07 10:33:18;;;;;;;22.30;16.67;;;21.50;95.20;;;;;;4956698;28;20058;-70
2022/05/07 10:35:58;;;;;;;22.00;16.00;;;21.60;95.10;;;;;;4959522;28;20654;-71
2022/05/07 10:38:28;;;;;;;21.10;15.48;;;21.40;94.60;;;;;;4938340;28;20400;-71
2022/05/07 10:40:56;;;;;;;21.77;14.97;;;21.60;94.60;;;;;;4970376;28;224128;-69
2022/05/07 10:43:33;;;;;;;20.52;14.95;;;21.50;94.30;;;;;;4963458;28;20050;-70
2022/05/07 10:46:03;;;;;;;22.75;16.35;;;21.50;93.50;;;;;;4958768;28;145129;-70
2022/05/07 10:48:45;;;;;;;17.67;15.13;;;21.60;93.60;;;;;;4938066;28;20058;-70
2022/05/07 10:51:21;;;;;;;22.95;16.25;;;21.70;94.20;;;;;;4978003;28;207151;-70
2022/05/07 10:53:49;;;;;;;22.52;16.58;;;22.20;93.80;;;;;;4941932;28;20049;-70
2022/05/07 10:56:17;;;;;;;22.88;17.88;;;22.50;93.30;;;;;;4941175;28;63916;-72
2022/05/07 10:58:48;;;;;;;22.90;17.08;;;22.40;92.90;;;;;;4943845;28;20088;-72
2022/05/07 11:01:17;;;;;;;22.38;17.67;;;22.30;92.90;;;;;;4969030;28;202236;-73
2022/05/07 11:03:43;;;;;;;23.58;18.83;;;22.10;93.00;;;;;;4940475;28;20053;-71
2022/05/07 11:06:10;;;;;;;24.80;19.00;;;22.20;93.90;;;;;;4933698;28;26820;-71
2022/05/07 11:08:55;;;;;;;24.83;19.02;;;22.30;93.70;;;;;;4969244;28;21072;-70
2022/05/07 11:11:24;;;;;;;27.25;20.77;;;22.10;93.60;;;;;;4955971;28;20051;-70
2022/05/07 11:13:52;;;;;;;26.20;19.60;;;21.80;94.90;;;;;;4945670;28;20045;-73
2022/05/07 11:16:20;;;;;;;26.65;18.85;;;22.00;95.60;;;;;;4967295;28;117290;-70
2022/05/07 11:18:51;;;;;;;24.05;18.88;;;22.30;95.10;;;;;;4948419;28;20046;-69
2022/05/07 11:21:24;;;;;;;23.63;19.80;;;22.40;94.70;;;;;;4938567;28;166439;-71
2022/05/07 11:23:58;;;;;;;25.70;19.65;;;22.40;94.50;;;;;;4939455;28;20487;-71
2022/05/07 11:26:25;;;;;;;26.75;21.50;;;22.30;94.30;;;;;;4962426;28;20046;-71
2022/05/07 11:28:52;;;;;;;28.95;23.27;;;22.00;94.30;;;;;;4970241;28;20049;-71
2022/05/07 11:31:32;;;;;;;29.27;22.60;;;21.50;94.70;;;;;;4985528;28;155101;-70
2022/05/07 11:34:03;;;;;;;30.00;22.38;;;21.30;95.50;;;;;;4932228;28;31519;-71
2022/05/07 11:36:29;;;;;;;33.22;24.25;;;21.10;95.80;;;;;;4976690;28;20054;-71
2022/05/07 11:39:04;;;;;;;32.30;22.45;;;21.00;96.10;;;;;;4937776;28;189720;-70
2022/05/07 11:41:30;;;;;;;27.83;22.02;;;21.00;96.30;;;;;;4975858;28;20059;-71
2022/05/07 11:46:52;;;;;;;30.05;23.17;;;21.20;96.20;;;;;;4978746;28;20039;-72
2022/05/07 11:49:35;;;;;;;29.30;22.05;;;21.30;96.20;;;;;;4950165;28;197216;-71
2022/05/07 11:52:09;;;;;;;30.65;23.90;;;21.70;96.20;;;;;;4969416;28;20484;-70
2022/05/07 11:54:35;;;;;;;29.38;23.15;;;22.20;95.80;;;;;;4935325;28;152056;-70
2022/05/07 11:57:01;;;;;;;31.58;23.35;;;22.30;95.30;;;;;;4964827;28;20050;-71
2022/05/07 11:59:27;;;;;;;31.88;24.20;;;22.30;95.40;;;;;;4962686;28;59856;-71
2022/05/07 12:01:53;;;;;;;34.05;26.35;;;22.00;95.10;;;;;;5001907;28;20047;-71
2022/05/07 12:04:19;;;;;;;35.40;27.73;;;21.80;95.60;;;;;;4919910;28;148233;-72
2022/05/07 12:06:55;;;;;;;38.05;28.02;;;21.50;96.20;;;;;;4977730;28;20054;-71
2022/05/07 12:09:22;;;;;;;34.55;28.52;;;21.30;96.70;;;;;;4943182;28;152766;-72
2022/05/07 12:11:49;;;;;;;38.15;28.90;;;21.30;97.10;;;;;;4992199;28;20416;-72
2022/05/07 12:14:15;;;;;;;37.70;28.40;;;21.40;97.20;;;;;;4948813;28;110528;-71
2022/05/07 12:19:34;;;;;;;38.20;27.52;;;21.10;97.40;;;;;;4957534;28;99689;-72
2022/05/07 12:30:15;;;;;;;38.42;27.70;;;20.80;97.90;;;;;;4956941;28;163013;-71
2022/05/07 12:32:44;;;;;;;36.63;26.13;;;21.10;97.80;;;;;;4980030;28;20058;-71
2022/05/07 12:35:11;;;;;;;36.47;26.10;;;21.30;97.60;;;;;;4958734;28;131262;-71
2022/05/07 12:37:38;;;;;;;34.03;24.80;;;21.20;97.30;;;;;;4958901;28;20066;-71
2022/05/07 12:40:08;;;;;;;30.67;23.65;;;21.20;97.30;;;;;;4957458;28;189786;-70
2022/05/07 12:42:37;;;;;;;33.10;23.30;;;21.40;97.30;;;;;;4958665;28;20076;-70
2022/05/07 12:45:03;;;;;;;28.52;21.42;;;21.50;97.20;;;;;;4934422;28;224996;-71
2022/05/07 12:47:29;;;;;;;27.13;20.15;;;21.80;96.50;;;;;;4964343;28;20050;-71
2022/05/07 12:49:56;;;;;;;26.77;19.90;;;21.90;96.60;;;;;;4951290;28;215727;-72
2022/05/07 12:52:22;;;;;;;24.05;17.83;;;22.20;96.20;;;;;;4962898;28;20407;-71
2022/05/07 12:54:48;;;;;;;23.05;17.58;;;22.20;95.70;;;;;;4957219;28;196241;-70
2022/05/07 12:57:15;;;;;;;23.60;16.70;;;22.30;95.50;;;;;;4970096;28;20113;-71
2022/05/07 12:59:41;;;;;;;17.13;11.75;;;22.10;95.40;;;;;;4942730;28;258763;-72
2022/05/07 13:02:11;;;;;;;17.17;11.48;;;22.20;95.60;;;;;;4965211;28;20059;-71
2022/05/07 13:04:37;;;;;;;16.15;11.75;;;21.80;95.30;;;;;;4943104;28;125214;-71
2022/05/07 13:07:04;;;;;;;17.95;11.50;;;21.40;95.90;;;;;;4975993;28;20046;-74